Anzahl Datensätze: 143
min. Temperatur: 9.7 °C
max. Temperatur: 27.6 °C
max. Windgeschwindigkeit: 11.9 km/h
Niederschlagsumme: 0.0 mm
| Datum |
Zeit |
Temp °C |
Feuchte % |
Taupunkt °C |
Luftdruck hPa |
Wind km/h |
Windrichtung |
Strahlung w/m² |
Niederschlag mm |
|---|---|---|---|---|---|---|---|---|---|
| 02.05.2025 | 00:08 | 14.5 | 65 | 8.1 | 1018.0 | 2.5 | O | 0 | 0.0 |
| 02.05.2025 | 00:18 | 14.3 | 65 | 7.9 | 1018.0 | 0.4 | N | 0 | 0.0 |
| 02.05.2025 | 00:28 | 13.8 | 69 | 8.2 | 1018.2 | 1.4 | NO | 0 | 0.0 |
| 02.05.2025 | 00:38 | 13.7 | 67 | 7.7 | 1018.2 | 0.7 | N | 0 | 0.0 |
| 02.05.2025 | 00:48 | 13.9 | 73 | 9.1 | 1018.2 | 3.2 | S | 0 | 0.0 |
| 02.05.2025 | 00:58 | 13.6 | 75 | 9.1 | 1018.3 | 0.7 | S | 0 | 0.0 |
| 02.05.2025 | 01:08 | 13.2 | 70 | 7.9 | 1018.4 | 0.7 | ONO | 0 | 0.0 |
| 02.05.2025 | 01:18 | 12.9 | 70 | 7.7 | 1018.4 | 1.8 | NNO | 0 | 0.0 |
| 02.05.2025 | 01:28 | 12.9 | 76 | 8.9 | 1018.3 | 1.4 | N | 0 | 0.0 |
| 02.05.2025 | 01:38 | 12.6 | 76 | 8.5 | 1018.5 | 2.2 | NNO | 0 | 0.0 |
| 02.05.2025 | 01:48 | 12.9 | 71 | 7.7 | 1018.5 | 1.8 | S | 0 | 0.0 |
| 02.05.2025 | 01:58 | 12.5 | 79 | 8.9 | 1018.7 | 2.2 | SSW | 0 | 0.0 |
| 02.05.2025 | 02:08 | 12.1 | 79 | 8.6 | 1018.8 | 2.2 | ONO | 0 | 0.0 |
| 02.05.2025 | 02:18 | 12.3 | 76 | 8.3 | 1018.7 | 1.4 | O | 0 | 0.0 |
| 02.05.2025 | 02:29 | 12.1 | 76 | 8.0 | 1018.7 | 1.1 | NO | 0 | 0.0 |
| 02.05.2025 | 02:39 | 12.1 | 75 | 7.7 | 1018.8 | 1.1 | ONO | 0 | 0.0 |
| 02.05.2025 | 02:49 | 11.9 | 74 | 7.5 | 1018.8 | 1.1 | N | 0 | 0.0 |
| 02.05.2025 | 02:59 | 11.9 | 75 | 7.6 | 1018.9 | 1.8 | NO | 0 | 0.0 |
| 02.05.2025 | 03:09 | 11.8 | 75 | 7.4 | 1018.9 | 2.9 | S | 0 | 0.0 |
| 02.05.2025 | 03:19 | 11.7 | 77 | 7.8 | 1018.9 | 1.4 | ONO | 0 | 0.0 |
| 02.05.2025 | 03:29 | 11.6 | 77 | 7.6 | 1019.0 | 1.8 | ONO | 0 | 0.0 |
| 02.05.2025 | 03:39 | 11.8 | 74 | 7.3 | 1019.1 | 1.1 | N | 0 | 0.0 |
| 02.05.2025 | 03:49 | 11.3 | 77 | 7.4 | 1019.2 | 2.2 | N | 0 | 0.0 |
| 02.05.2025 | 03:59 | 11.3 | 77 | 7.5 | 1019.3 | 0.7 | N | 0 | 0.0 |
| 02.05.2025 | 04:09 | 11.0 | 78 | 7.4 | 1019.2 | 1.4 | O | 0 | 0.0 |
| 02.05.2025 | 04:19 | 10.9 | 78 | 7.2 | 1019.3 | 1.4 | NO | 0 | 0.0 |
| 02.05.2025 | 04:29 | 11.0 | 77 | 7.1 | 1019.3 | 1.1 | NO | 0 | 0.0 |
| 02.05.2025 | 04:39 | 11.0 | 77 | 7.1 | 1019.2 | 1.1 | SSO | 0 | 0.0 |
| 02.05.2025 | 04:49 | 10.9 | 81 | 7.8 | 1019.4 | 0.7 | N | 0 | 0.0 |
| 02.05.2025 | 04:59 | 10.7 | 79 | 7.1 | 1019.5 | 1.8 | ONO | 0 | 0.0 |
| 02.05.2025 | 05:09 | 10.7 | 77 | 6.9 | 1019.3 | 0.4 | N | 0 | 0.0 |
| 02.05.2025 | 05:19 | 10.7 | 79 | 7.2 | 1019.3 | 1.1 | N | 0 | 0.0 |
| 02.05.2025 | 05:29 | 10.5 | 82 | 7.5 | 1019.4 | 1.1 | SO | 0 | 0.0 |
| 02.05.2025 | 05:39 | 10.0 | 82 | 7.2 | 1019.6 | 1.8 | N | 0 | 0.0 |
| 02.05.2025 | 05:49 | 10.4 | 82 | 7.4 | 1019.6 | 0.7 | N | 0 | 0.0 |
| 02.05.2025 | 05:59 | 10.2 | 80 | 6.8 | 1019.7 | 1.1 | NW | 0 | 0.0 |
| 02.05.2025 | 06:09 | 10.4 | 79 | 6.8 | 1019.7 | 0.7 | N | 3 | 0.0 |
| 02.05.2025 | 06:19 | 10.1 | 81 | 7.0 | 1019.7 | 0.7 | N | 6 | 0.0 |
| 02.05.2025 | 06:29 | 9.8 | 81 | 6.8 | 1019.8 | 1.1 | N | 9 | 0.0 |
| 02.05.2025 | 06:39 | 10.2 | 79 | 6.7 | 1019.8 | 0.7 | N | 13 | 0.0 |
| 02.05.2025 | 06:49 | 9.9 | 82 | 7.0 | 1019.9 | 1.4 | N | 16 | 0.0 |
| 02.05.2025 | 06:59 | 9.7 | 83 | 6.9 | 1020.0 | 0.7 | N | 19 | 0.0 |
| 02.05.2025 | 07:09 | 10.0 | 82 | 7.1 | 1019.9 | 1.4 | NNO | 22 | 0.0 |
| 02.05.2025 | 07:19 | 10.2 | 81 | 7.0 | 1019.8 | 1.4 | N | 26 | 0.0 |
| 02.05.2025 | 07:29 | 10.4 | 83 | 7.6 | 1019.8 | 1.1 | N | 29 | 0.0 |
| 02.05.2025 | 07:39 | 10.5 | 82 | 7.5 | 1019.7 | 1.4 | S | 31 | 0.0 |
| 02.05.2025 | 07:50 | 10.7 | 80 | 7.3 | 1019.7 | 0.7 | N | 33 | 0.0 |
| 02.05.2025 | 08:00 | 10.5 | 82 | 7.5 | 1019.6 | 2.5 | WSW | 35 | 0.0 |
| 02.05.2025 | 08:10 | 10.7 | 80 | 7.4 | 1019.6 | 3.2 | SSW | 131 | 0.0 |
| 02.05.2025 | 08:20 | 11.6 | 76 | 7.6 | 1019.4 | 1.4 | N | 225 | 0.0 |
| 02.05.2025 | 08:30 | 12.4 | 67 | 6.6 | 1019.2 | 3.6 | S | 248 | 0.0 |
| 02.05.2025 | 08:40 | 12.2 | 74 | 7.8 | 1019.0 | 4.3 | S | 270 | 0.0 |
| 02.05.2025 | 08:50 | 12.6 | 75 | 8.2 | 1018.8 | 2.9 | SSW | 292 | 0.0 |
| 02.05.2025 | 09:00 | 12.9 | 75 | 8.6 | 1018.7 | 2.9 | SSW | 314 | 0.0 |
| 02.05.2025 | 09:10 | 14.0 | 71 | 8.8 | 1018.3 | 5.8 | WSW | 335 | 0.0 |
| 02.05.2025 | 09:20 | 13.7 | 73 | 8.9 | 1018.3 | 2.2 | S | 356 | 0.0 |
| 02.05.2025 | 09:30 | 14.7 | 68 | 9.0 | 1018.2 | 1.8 | WSW | 375 | 0.0 |
| 02.05.2025 | 09:40 | 14.1 | 69 | 8.5 | 1018.2 | 3.2 | SSW | 396 | 0.0 |
| 02.05.2025 | 09:50 | 14.2 | 73 | 9.4 | 1018.2 | 4.0 | S | 415 | 0.0 |
| 02.05.2025 | 10:00 | 15.5 | 65 | 9.0 | 1017.5 | 4.0 | SSW | 434 | 0.0 |
| 02.05.2025 | 10:10 | 14.8 | 68 | 8.8 | 1017.6 | 3.6 | S | 454 | 0.0 |
| 02.05.2025 | 10:20 | 15.0 | 68 | 9.0 | 1017.5 | 2.5 | SW | 472 | 0.0 |
| 02.05.2025 | 10:30 | 15.9 | 64 | 9.1 | 1017.3 | 5.0 | SSW | 490 | 0.0 |
| 02.05.2025 | 10:40 | 16.8 | 61 | 9.2 | 1017.0 | 2.5 | WSW | 508 | 0.0 |
| 02.05.2025 | 10:50 | 16.0 | 63 | 9.1 | 1017.0 | 4.7 | SSW | 525 | 0.0 |
| 02.05.2025 | 11:00 | 15.7 | 64 | 8.9 | 1017.0 | 3.2 | SSW | 541 | 0.0 |
| 02.05.2025 | 11:10 | 17.7 | 54 | 8.2 | 1016.5 | 2.2 | S | 556 | 0.0 |
| 02.05.2025 | 11:20 | 18.7 | 50 | 8.1 | 1016.2 | 2.9 | SW | 572 | 0.0 |
| 02.05.2025 | 11:30 | 18.9 | 50 | 8.4 | 1015.9 | 1.4 | S | 586 | 0.0 |
| 02.05.2025 | 11:40 | 18.6 | 53 | 8.9 | 1016.1 | 3.2 | S | 599 | 0.0 |
| 02.05.2025 | 11:50 | 17.5 | 60 | 9.6 | 1016.2 | 5.0 | SSW | 610 | 0.0 |
| 02.05.2025 | 12:00 | 18.6 | 56 | 9.8 | 1015.9 | 5.0 | SSW | 622 | 0.0 |
| 02.05.2025 | 12:10 | 19.7 | 51 | 9.3 | 1015.6 | 2.5 | W | 629 | 0.0 |
| 02.05.2025 | 12:20 | 20.7 | 50 | 9.7 | 1015.3 | 5.0 | SSW | 639 | 0.0 |
| 02.05.2025 | 12:30 | 20.9 | 45 | 8.4 | 1015.2 | 4.7 | WSW | 651 | 0.0 |
| 02.05.2025 | 12:40 | 21.5 | 39 | 6.8 | 1014.9 | 3.6 | WSW | 658 | 0.0 |
| 02.05.2025 | 12:50 | 22.5 | 38 | 7.6 | 1014.6 | 4.3 | WNW | 664 | 0.0 |
| 02.05.2025 | 13:00 | 23.4 | 37 | 7.9 | 1014.2 | 4.0 | WSW | 665 | 0.0 |
| 02.05.2025 | 13:10 | 22.1 | 41 | 8.1 | 1014.5 | 3.6 | WSW | 665 | 0.0 |
| 02.05.2025 | 13:20 | 23.3 | 39 | 8.6 | 1014.1 | 3.6 | WSW | 669 | 0.0 |
| 02.05.2025 | 13:30 | 23.2 | 40 | 8.7 | 1013.9 | 2.9 | WSW | 671 | 0.0 |
| 02.05.2025 | 13:41 | 23.1 | 41 | 9.3 | 1013.8 | 3.2 | SSW | 670 | 0.0 |
| 02.05.2025 | 13:51 | 22.8 | 39 | 8.0 | 1013.7 | 6.1 | SW | 668 | 0.0 |
| 02.05.2025 | 14:01 | 23.5 | 37 | 7.9 | 1013.4 | 4.0 | SSW | 665 | 0.0 |
| 02.05.2025 | 14:11 | 23.6 | 40 | 9.1 | 1013.3 | 4.3 | S | 664 | 0.0 |
| 02.05.2025 | 14:21 | 21.0 | 50 | 10.3 | 1013.6 | 3.2 | SSW | 659 | 0.0 |
| 02.05.2025 | 14:31 | 21.2 | 57 | 12.4 | 1013.3 | 4.3 | SSW | 651 | 0.0 |
| 02.05.2025 | 14:41 | 22.8 | 43 | 9.6 | 1013.0 | 5.0 | SW | 641 | 0.0 |
| 02.05.2025 | 14:51 | 22.3 | 50 | 11.4 | 1012.9 | 4.7 | SSW | 635 | 0.0 |
| 02.05.2025 | 15:01 | 24.1 | 49 | 12.6 | 1012.4 | 3.6 | SW | 623 | 0.0 |
| 02.05.2025 | 15:11 | 25.0 | 35 | 8.3 | 1011.9 | 3.2 | SW | 611 | 0.0 |
| 02.05.2025 | 15:21 | 24.9 | 39 | 10.0 | 1011.9 | 1.4 | N | 600 | 0.0 |
| 02.05.2025 | 15:31 | 26.0 | 31 | 7.5 | 1011.7 | 5.8 | WSW | 589 | 0.0 |
| 02.05.2025 | 15:41 | 25.5 | 30 | 6.7 | 1011.9 | 5.4 | SW | 571 | 0.0 |
| 02.05.2025 | 15:51 | 26.4 | 30 | 7.4 | 1011.6 | 6.1 | SW | 555 | 0.0 |
| 02.05.2025 | 16:01 | 26.9 | 27 | 6.1 | 1011.4 | 4.7 | WSW | 541 | 0.0 |
| 02.05.2025 | 16:11 | 27.4 | 25 | 5.8 | 1011.1 | 6.5 | WSW | 524 | 0.0 |
| 02.05.2025 | 16:21 | 27.6 | 29 | 7.8 | 1011.1 | 0.4 | N | 503 | 0.0 |
| 02.05.2025 | 16:31 | 26.6 | 31 | 8.2 | 1011.1 | 2.2 | W | 485 | 0.0 |
| 02.05.2025 | 16:41 | 26.6 | 32 | 8.8 | 1011.2 | 0.4 | W | 467 | 0.0 |
| 02.05.2025 | 16:51 | 27.2 | 32 | 9.1 | 1011.3 | 2.2 | N | 432 | 0.0 |
| 02.05.2025 | 17:01 | 25.7 | 34 | 8.8 | 1011.5 | 6.1 | SSW | 415 | 0.0 |
| 02.05.2025 | 17:11 | 26.0 | 33 | 8.4 | 1011.6 | 3.2 | WSW | 397 | 0.0 |
| 02.05.2025 | 17:21 | 25.4 | 37 | 9.5 | 1011.7 | 4.3 | W | 375 | 0.0 |
| 02.05.2025 | 17:31 | 25.4 | 36 | 9.5 | 1011.6 | 1.8 | SW | 345 | 0.0 |
| 02.05.2025 | 17:41 | 25.0 | 35 | 8.6 | 1011.6 | 0.4 | NW | 346 | 0.0 |
| 02.05.2025 | 17:51 | 25.0 | 35 | 8.6 | 1011.8 | 2.9 | SW | 326 | 0.0 |
| 02.05.2025 | 18:01 | 25.5 | 35 | 8.9 | 1011.5 | 2.2 | WNW | 247 | 0.0 |
| 02.05.2025 | 18:11 | 24.8 | 34 | 7.8 | 1011.7 | 2.5 | NW | 187 | 0.0 |
| 02.05.2025 | 18:21 | 24.4 | 35 | 7.7 | 1011.7 | 2.5 | N | 236 | 0.0 |
| 02.05.2025 | 18:31 | 24.4 | 34 | 7.4 | 1011.7 | 2.2 | NW | 163 | 0.0 |
| 02.05.2025 | 18:41 | 23.7 | 36 | 7.7 | 1011.7 | 0.7 | WSW | 110 | 0.0 |
| 02.05.2025 | 18:52 | 23.1 | 39 | 8.4 | 1011.6 | 1.8 | SW | 198 | 0.0 |
| 02.05.2025 | 19:02 | 22.1 | 43 | 8.8 | 1011.9 | 4.7 | SSO | 132 | 0.0 |
| 02.05.2025 | 19:12 | 22.5 | 40 | 8.4 | 1011.9 | 1.4 | N | 62 | 0.0 |
| 02.05.2025 | 19:22 | 22.4 | 41 | 8.5 | 1011.9 | 2.5 | N | 61 | 0.0 |
| 02.05.2025 | 19:32 | 21.9 | 45 | 9.3 | 1012.1 | 3.6 | W | 63 | 0.0 |
| 02.05.2025 | 19:42 | 21.5 | 50 | 10.5 | 1012.3 | 1.1 | S | 52 | 0.0 |
| 02.05.2025 | 19:52 | 21.7 | 43 | 8.6 | 1012.3 | 3.6 | SSW | 38 | 0.0 |
| 02.05.2025 | 20:02 | 19.1 | 59 | 11.0 | 1013.0 | 1.4 | NNO | 30 | 0.0 |
| 02.05.2025 | 20:12 | 20.1 | 52 | 9.8 | 1012.8 | 0.4 | N | 19 | 0.0 |
| 02.05.2025 | 20:22 | 19.7 | 54 | 10.2 | 1012.9 | 0.4 | N | 10 | 0.0 |
| 02.05.2025 | 20:32 | 20.1 | 48 | 8.9 | 1012.7 | 3.2 | NO | 5 | 0.0 |
| 02.05.2025 | 20:42 | 20.0 | 46 | 8.1 | 1012.7 | 0.7 | WNW | 2 | 0.0 |
| 02.05.2025 | 20:52 | 19.4 | 53 | 9.6 | 1012.8 | 2.5 | ONO | 0 | 0.0 |
| 02.05.2025 | 21:02 | 19.4 | 50 | 8.8 | 1013.1 | 1.8 | NNW | 0 | 0.0 |
| 02.05.2025 | 21:12 | 18.3 | 58 | 9.9 | 1013.4 | 2.2 | S | 0 | 0.0 |
| 02.05.2025 | 21:22 | 17.9 | 58 | 9.7 | 1013.6 | 2.2 | NNO | 0 | 0.0 |
| 02.05.2025 | 21:32 | 18.5 | 53 | 8.7 | 1013.4 | 1.1 | N | 0 | 0.0 |
| 02.05.2025 | 21:42 | 18.3 | 54 | 8.8 | 1013.5 | 0.4 | N | 0 | 0.0 |
| 02.05.2025 | 21:52 | 18.4 | 51 | 8.2 | 1013.6 | 2.2 | NO | 0 | 0.0 |
| 02.05.2025 | 22:02 | 17.4 | 60 | 9.4 | 1014.1 | 1.1 | NO | 0 | 0.0 |
| 02.05.2025 | 22:12 | 17.8 | 54 | 8.3 | 1013.9 | 3.2 | N | 0 | 0.0 |
| 02.05.2025 | 22:22 | 16.7 | 60 | 8.9 | 1014.2 | 2.5 | NNO | 0 | 0.0 |
| 02.05.2025 | 22:32 | 16.9 | 58 | 8.6 | 1014.1 | 2.2 | ONO | 0 | 0.0 |
| 02.05.2025 | 22:42 | 17.1 | 58 | 8.8 | 1014.1 | 0.7 | N | 0 | 0.0 |
| 02.05.2025 | 22:52 | 16.8 | 57 | 8.4 | 1014.3 | 1.1 | NO | 0 | 0.0 |
| 02.05.2025 | 23:02 | 17.0 | 60 | 9.3 | 1014.2 | 0.4 | N | 0 | 0.0 |
| 02.05.2025 | 23:12 | 16.2 | 64 | 9.4 | 1014.4 | 0.7 | N | 0 | 0.0 |
| 02.05.2025 | 23:22 | 15.3 | 70 | 9.8 | 1014.7 | 1.8 | NNO | 0 | 0.0 |
| 02.05.2025 | 23:32 | 15.7 | 67 | 9.7 | 1014.6 | 3.2 | S | 0 | 0.0 |
| 02.05.2025 | 23:42 | 15.4 | 66 | 9.1 | 1014.6 | 1.1 | N | 0 | 0.0 |
| 02.05.2025 | 23:52 | 15.7 | 65 | 9.2 | 1014.4 | 0.7 | N | 0 | 0.0 |